Time;durP1;ratioP1;P1;durP2;ratioP2;P2;SDS_P1;SDS_P2;PMS_P1;PMS_P2;Temp;Humidity;BMP_temperature;BMP_pressure;BME280_temperature;BME280_humidity;BME280_pressure;Samples;Min_cycle;Max_cycle;Signal;HPM_P1;HPM_P2
2023/06/20 00:02:19;;;;;;;;;3.00;3.00;;;;;22.72;64.87;100522.97;6120138;23;45493;-67
2023/06/20 00:04:45;;;;;;;;;6.00;5.00;;;;;22.66;65.03;100515.00;6119775;23;45211;-65
2023/06/20 00:07:10;;;;;;;;;7.00;4.00;;;;;22.63;65.04;100519.56;6119715;23;54388;-66
2023/06/20 00:09:35;;;;;;;;;3.67;2.67;;;;;22.64;65.14;100517.78;6119353;23;51541;-66
2023/06/20 00:12:01;;;;;;;;;2.67;1.00;;;;;22.63;65.42;100515.97;6119878;23;45370;-67
2023/06/20 00:14:30;;;;;;;;;2.67;0.33;;;;;22.62;65.17;100509.66;6119645;23;45397;-66
2023/06/20 00:16:58;;;;;;;;;2.00;2.00;;;;;22.70;65.13;100512.13;6119092;23;46168;-67
2023/06/20 00:19:24;;;;;;;;;2.00;2.00;;;;;22.75;64.98;100506.56;6119350;23;45441;-67
2023/06/20 00:21:49;;;;;;;;;2.67;2.00;;;;;22.74;65.15;100511.13;6119128;23;45366;-66
2023/06/20 00:24:15;;;;;;;;;1.33;1.33;;;;;22.64;65.37;100491.41;6118913;23;45345;-66
2023/06/20 00:26:40;;;;;;;;;3.00;3.00;;;;;22.67;65.21;100493.19;6117780;23;46190;-66
2023/06/20 00:29:05;;;;;;;;;6.33;2.67;;;;;22.53;65.74;100479.03;6118554;23;59855;-68
2023/06/20 00:31:30;;;;;;;;;3.00;3.00;;;;;22.48;65.80;100487.34;6119927;23;45702;-67
2023/06/20 00:33:56;;;;;;;;;4.00;2.00;;;;;22.55;65.82;100488.06;6119346;23;45483;-67
2023/06/20 00:36:25;;;;;;;;;4.33;2.00;;;;;22.58;65.86;100497.03;6117230;23;48124;-66
2023/06/20 00:38:51;;;;;;;;;2.00;2.00;;;;;22.55;66.06;100498.94;6117230;23;45407;-68
2023/06/20 00:41:20;;;;;;;;;2.00;2.00;;;;;22.52;65.75;100482.69;6119184;23;45347;-67
2023/06/20 00:43:49;;;;;;;;;4.67;1.67;;;;;22.61;66.07;100505.13;6118685;23;45400;-67
2023/06/20 00:46:23;;;;;;;;;4.00;1.67;;;;;22.58;65.93;100499.75;6119411;23;46278;-66
2023/06/20 00:48:50;;;;;;;;;1.00;1.00;;;;;22.64;66.05;100505.03;6119218;23;45342;-67
2023/06/20 00:51:16;;;;;;;;;3.00;2.00;;;;;22.63;66.19;100497.78;6117109;23;45366;-68
2023/06/20 00:53:43;;;;;;;;;4.00;2.00;;;;;22.67;66.22;100489.53;6124359;23;45391;-66
2023/06/20 00:56:12;;;;;;;;;3.00;2.00;;;;;22.69;66.10;100502.19;6124063;23;46244;-66
2023/06/20 00:58:37;;;;;;;;;4.67;1.67;;;;;22.71;66.02;100489.41;6118868;23;45249;-66
2023/06/20 01:01:03;;;;;;;;;4.00;2.00;;;;;22.65;66.32;100484.13;6116821;23;45356;-67
2023/06/20 01:03:29;;;;;;;;;1.67;1.67;;;;;22.60;66.70;100478.84;6119146;23;45402;-67
2023/06/20 01:06:13;;;;;;;;;4.00;2.00;;;;;22.58;66.94;100483.41;6118948;23;46054;-66
2023/06/20 01:09:10;;;;;;;;;1.67;1.67;;;;;22.56;67.21;100488.03;6118976;23;45284;-67
2023/06/20 01:12:04;;;;;;;;;1.67;1.33;;;;;22.52;66.95;100480.88;6118844;23;45269;-67
2023/06/20 01:15:06;;;;;;;;;3.00;3.00;;;;;22.55;67.13;100496.22;6114862;23;45391;-66
2023/06/20 01:18:06;;;;;;;;;4.00;2.33;;;;;22.56;67.34;100485.28;6080753;23;45337;-67
2023/06/20 01:20:36;;;;;;;;;1.00;1.00;;;;;22.53;67.59;100484.50;6119400;23;45280;-66
2023/06/20 01:23:08;;;;;;;;;3.33;2.67;;;;;22.53;67.70;100489.94;6119237;23;45354;-68
2023/06/20 01:25:46;;;;;;;;;1.67;1.67;;;;;22.53;67.60;100477.22;6119423;23;45217;-67
2023/06/20 01:28:32;;;;;;;;;1.67;1.67;;;;;22.57;67.66;100494.34;6117984;23;45374;-67
2023/06/20 01:31:11;;;;;;;;;3.00;3.00;;;;;22.59;67.40;100482.50;6118277;23;45377;-68
2023/06/20 01:34:00;;;;;;;;;5.33;2.00;;;;;22.49;67.70;100461.91;6118516;23;45540;-68
2023/06/20 01:36:35;;;;;;;;;4.00;3.00;;;;;22.58;67.76;100474.38;6116902;23;45720;-67
2023/06/20 01:39:07;;;;;;;;;3.00;3.00;;;;;22.49;67.83;100458.28;6117917;23;46209;-68
2023/06/20 01:41:37;;;;;;;;;4.00;1.33;;;;;22.54;68.02;100470.84;6118506;23;45292;-68
2023/06/20 01:44:06;;;;;;;;;4.00;3.00;;;;;22.53;68.22;100460.88;6118515;23;45295;-66
2023/06/20 01:46:32;;;;;;;;;4.67;2.33;;;;;22.54;68.03;100478.13;6118543;23;45359;-65
2023/06/20 01:48:59;;;;;;;;;3.00;3.00;;;;;22.45;68.18;100468.34;6119047;23;46229;-66
2023/06/20 01:51:26;;;;;;;;;5.00;3.67;;;;;22.49;68.09;100478.25;6116611;23;45454;-68
2023/06/20 01:53:53;;;;;;;;;4.00;2.67;;;;;22.50;68.06;100481.84;6118729;23;45458;-66
2023/06/20 01:56:20;;;;;;;;;3.00;3.00;;;;;22.53;68.44;100479.03;6119303;23;45294;-66
2023/06/20 01:58:48;;;;;;;;;3.00;2.33;;;;;22.40;68.44;100470.31;6119252;23;45224;-68
2023/06/20 02:01:14;;;;;;;;;4.00;2.33;;;;;22.47;68.66;100490.97;6116859;23;45415;-67
2023/06/20 02:03:41;;;;;;;;;3.00;3.00;;;;;22.44;68.52;100485.66;6116120;23;45458;-66
2023/06/20 02:06:09;;;;;;;;;2.33;2.33;;;;;22.50;68.41;100492.75;6118914;23;45228;-67
2023/06/20 02:08:37;;;;;;;;;3.00;3.00;;;;;22.38;68.57;100469.47;6117997;23;45249;-65
2023/06/20 02:11:05;;;;;;;;;3.00;2.00;;;;;22.41;69.16;100483.88;6116172;23;45444;-67
2023/06/20 02:13:31;;;;;;;;;2.00;2.00;;;;;22.44;68.81;100478.34;6117197;23;45612;-68
2023/06/20 02:15:59;;;;;;;;;4.00;3.00;;;;;22.45;68.84;100482.88;6120459;23;45197;-68
2023/06/20 02:18:24;;;;;;;;;2.00;2.00;;;;;22.34;68.77;100462.31;6119596;23;45579;-67
2023/06/20 02:20:54;;;;;;;;;9.00;3.67;;;;;22.46;68.93;100478.31;6119029;23;45225;-67
2023/06/20 02:23:28;;;;;;;;;3.00;3.00;;;;;22.44;68.97;100481.09;6120209;23;45424;-68
2023/06/20 02:25:59;;;;;;;;;1.67;1.67;;;;;22.36;69.03;100455.00;6119954;23;45244;-68
2023/06/20 02:28:28;;;;;;;;;3.00;3.00;;;;;22.38;69.10;100448.56;6142813;23;47228;-68
2023/06/20 02:30:54;;;;;;;;;4.00;2.33;;;;;22.43;69.00;100456.63;6120036;23;45149;-68
2023/06/20 02:33:22;;;;;;;;;2.67;2.67;;;;;22.42;68.85;100447.56;6119983;23;45323;-67
2023/06/20 02:35:50;;;;;;;;;5.00;3.00;;;;;22.43;68.83;100445.72;6120450;23;45561;-66
2023/06/20 02:38:15;;;;;;;;;3.67;3.67;;;;;22.41;68.97;100450.34;6119433;23;45457;-66
2023/06/20 02:40:41;;;;;;;;;3.33;3.33;;;;;22.35;69.03;100442.31;6119798;23;45239;-68
2023/06/20 02:43:08;;;;;;;;;4.00;4.00;;;;;22.40;68.94;100452.13;6120558;23;45216;-66
2023/06/20 02:45:34;;;;;;;;;3.67;3.67;;;;;22.36;68.91;100447.72;6122423;23;45230;-67
2023/06/20 02:48:26;;;;;;;;;5.00;5.00;;;;;22.42;69.14;100454.81;6120848;23;46470;-65
2023/06/20 02:51:09;;;;;;;;;3.00;3.00;;;;;22.38;69.39;100450.41;6120172;23;45221;-64
2023/06/20 02:54:15;;;;;;;;;3.00;3.00;;;;;22.38;69.28;100445.84;6117862;23;45333;-65
2023/06/20 02:56:43;;;;;;;;;7.67;3.00;;;;;22.32;69.17;100432.41;6060400;23;45238;-66
2023/06/20 02:59:11;;;;;;;;;4.00;4.00;;;;;22.42;68.83;100446.66;6119255;23;45826;-67
2023/06/20 03:01:39;;;;;;;;;6.67;5.00;;;;;22.35;69.04;100434.16;6119228;23;45363;-65
2023/06/20 03:04:06;;;;;;;;;4.00;4.00;;;;;22.45;68.95;100449.31;6119536;23;45221;-66
2023/06/20 03:06:37;;;;;;;;;5.00;5.00;;;;;22.45;69.03;100441.13;6119905;23;45260;-66
2023/06/20 03:09:04;;;;;;;;;3.00;3.00;;;;;22.41;68.74;100434.88;6116984;23;48727;-67
2023/06/20 03:11:29;;;;;;;;;6.00;5.33;;;;;22.50;68.88;100444.63;6119069;23;45423;-67
2023/06/20 03:13:55;;;;;;;;;4.67;3.67;;;;;22.46;68.89;100429.31;6119325;23;45301;-67
2023/06/20 03:16:20;;;;;;;;;6.33;4.00;;;;;22.47;68.90;100443.81;6120212;23;45475;-66
2023/06/20 03:18:51;;;;;;;;;3.67;3.67;;;;;22.33;68.91;100417.00;6119750;23;46186;-67
2023/06/20 03:21:18;;;;;;;;;5.00;2.67;;;;;22.39;68.97;100435.84;6120068;23;45429;-67
2023/06/20 03:23:44;;;;;;;;;3.00;3.00;;;;;22.31;69.25;100430.63;6120060;23;45528;-66
2023/06/20 03:26:09;;;;;;;;;2.67;2.67;;;;;22.32;69.14;100426.06;6118823;23;45577;-66
2023/06/20 03:28:34;;;;;;;;;4.00;4.00;;;;;22.39;69.22;100449.47;6118994;23;45917;-67
2023/06/20 03:31:01;;;;;;;;;4.33;4.33;;;;;22.36;69.17;100435.97;6120207;23;45296;-67
2023/06/20 03:33:26;;;;;;;;;5.00;3.33;;;;;22.35;69.22;100437.75;6119401;23;45581;-67
2023/06/20 03:35:52;;;;;;;;;4.33;3.33;;;;;22.32;69.32;100426.97;6118442;23;45410;-66
2023/06/20 03:38:17;;;;;;;;;3.00;3.00;;;;;22.36;69.25;100425.97;6119125;23;46913;-67
2023/06/20 03:40:43;;;;;;;;;4.00;4.00;;;;;22.37;69.09;100413.22;6119538;23;45388;-67
2023/06/20 03:43:09;;;;;;;;;5.67;4.00;;;;;22.33;68.91;100409.72;6117854;23;45178;-67
2023/06/20 03:45:34;;;;;;;;;4.67;3.67;;;;;22.32;69.14;100424.25;6120074;23;45541;-67
2023/06/20 03:47:59;;;;;;;;;6.00;4.00;;;;;22.27;69.35;100423.44;6118953;23;45313;-67
2023/06/20 03:50:25;;;;;;;;;4.00;4.00;;;;;22.20;69.57;100420.00;6119115;23;49759;-67
2023/06/20 03:52:50;;;;;;;;;6.00;3.33;;;;;22.27;69.38;100420.72;6117453;23;45573;-66
2023/06/20 03:55:16;;;;;;;;;5.00;3.67;;;;;22.29;69.67;100424.34;6119950;23;45385;-66
2023/06/20 03:57:41;;;;;;;;;2.67;2.00;;;;;22.29;69.35;100427.06;6120314;23;45922;-67
2023/06/20 04:00:11;;;;;;;;;8.00;6.00;;;;;22.21;69.61;100404.59;6118663;23;45518;-67
2023/06/20 04:02:37;;;;;;;;;29.50;28.25;;;;;22.32;69.35;100420.63;6119244;23;45527;-67
2023/06/20 04:05:02;;;;;;;;;5.67;5.00;;;;;22.25;69.29;100418.03;6120828;23;45257;-66
2023/06/20 04:07:31;;;;;;;;;6.00;5.00;;;;;22.14;69.35;100395.69;6119799;23;46038;-67
2023/06/20 04:09:56;;;;;;;;;5.33;3.67;;;;;22.30;69.54;100417.94;6118739;23;45221;-67
2023/06/20 04:12:22;;;;;;;;;6.33;4.00;;;;;22.31;69.34;100413.41;6120021;23;45153;-66
2023/06/20 04:14:47;;;;;;;;;5.33;5.00;;;;;22.37;68.97;100421.41;6121162;23;45367;-67
2023/06/20 04:17:13;;;;;;;;;6.00;4.00;;;;;22.37;69.15;100415.94;6120954;23;46227;-67
2023/06/20 04:19:38;;;;;;;;;7.00;7.00;;;;;22.36;68.79;100419.63;6119416;23;45514;-67
2023/06/20 04:22:04;;;;;;;;;8.00;5.33;;;;;22.38;68.94;100412.31;6119577;23;45347;-67
2023/06/20 04:24:29;;;;;;;;;3.67;3.67;;;;;22.30;68.95;100423.41;6119997;23;45369;-67
2023/06/20 04:26:54;;;;;;;;;4.33;4.33;;;;;22.39;68.99;100438.56;6119843;23;45297;-68
2023/06/20 04:29:20;;;;;;;;;8.33;3.67;;;;;22.41;68.79;100424.00;6119209;23;56460;-67
2023/06/20 04:31:47;;;;;;;;;10.67;5.00;;;;;22.40;68.48;100419.47;6118113;23;45183;-67
2023/06/20 04:34:12;;;;;;;;;4.67;4.00;;;;;22.40;68.62;100421.31;6121693;23;45415;-66
2023/06/20 04:36:38;;;;;;;;;7.00;5.33;;;;;22.23;68.82;100403.59;6127525;23;45392;-67
2023/06/20 04:39:04;;;;;;;;;7.33;5.00;;;;;22.33;68.59;100420.59;6122210;23;45323;-66
2023/06/20 04:41:29;;;;;;;;;7.00;6.00;;;;;22.37;68.72;100432.28;6119484;23;45356;-67
2023/06/20 04:43:55;;;;;;;;;5.67;4.33;;;;;22.35;68.77;100437.75;6120039;23;45447;-66
2023/06/20 04:46:20;;;;;;;;;7.67;5.00;;;;;22.35;68.77;100431.44;6119292;23;46195;-66
2023/06/20 04:48:48;;;;;;;;;5.67;5.00;;;;;22.34;68.96;100425.13;6119515;23;45297;-66
2023/06/20 04:51:16;;;;;;;;;4.67;3.67;;;;;22.39;68.51;100403.19;6119824;23;45471;-67
2023/06/20 04:53:41;;;;;;;;;10.67;7.67;;;;;22.35;68.41;100413.28;6118713;23;45460;-66
2023/06/20 04:56:06;;;;;;;;;7.00;5.67;;;;;22.47;68.24;100411.16;6119325;23;46107;-66
2023/06/20 04:58:32;;;;;;;;;6.00;6.00;;;;;22.20;68.31;100379.19;6119247;23;45419;-66
2023/06/20 05:00:59;;;;;;;;;4.33;3.00;;;;;22.44;68.19;100417.59;6119342;23;45326;-66
2023/06/20 05:03:25;;;;;;;;;7.00;5.67;;;;;22.44;68.10;100406.69;6120248;23;45463;-68
2023/06/20 05:05:51;;;;;;;;;6.00;6.00;;;;;22.40;67.87;100402.25;6119874;23;45390;-68
2023/06/20 05:08:16;;;;;;;;;8.00;7.33;;;;;22.45;68.00;100405.75;6119001;23;45344;-66
2023/06/20 05:10:41;;;;;;;;;10.33;7.00;;;;;22.47;67.68;100411.16;6119324;23;45423;-67
2023/06/20 05:13:07;;;;;;;;;3.67;1.00;;;;;22.47;67.82;100411.16;6119809;23;45548;-67
2023/06/20 05:15:32;;;;;;;;;10.00;6.33;;;;;22.46;67.89;100407.53;6118869;23;46095;-66
2023/06/20 05:17:58;;;;;;;;;7.33;6.00;;;;;22.51;67.52;100401.97;6118795;23;45284;-67
2023/06/20 05:20:23;;;;;;;;;7.00;7.00;;;;;22.52;67.45;100414.63;6119163;23;50878;-66
2023/06/20 05:22:49;;;;;;;;;4.00;4.00;;;;;22.45;67.27;100403.94;6125880;23;45225;-66
2023/06/20 05:25:14;;;;;;;;;10.33;7.00;;;;;22.55;67.54;100412.69;6128389;23;45094;-67
2023/06/20 05:27:40;;;;;;;;;9.33;6.33;;;;;22.49;67.18;100406.53;6128769;23;44989;-67
2023/06/20 05:30:06;;;;;;;;;7.67;4.33;;;;;22.54;67.31;100418.22;6130773;23;45032;-66
2023/06/20 05:32:31;;;;;;;;;10.00;7.00;;;;;22.53;67.33;100408.25;6131659;23;45086;-67
2023/06/20 05:34:57;;;;;;;;;24.00;22.67;;;;;22.51;67.38;100411.03;6131092;23;45601;-67
2023/06/20 05:37:22;;;;;;;;;6.67;6.67;;;;;22.47;67.35;100401.13;6131019;23;44841;-67
2023/06/20 05:39:48;;;;;;;;;10.33;8.67;;;;;22.47;67.26;100406.59;6128356;23;45168;-67
2023/06/20 05:42:13;;;;;;;;;6.00;6.00;;;;;22.51;67.30;100404.69;6130493;23;45245;-65
2023/06/20 05:44:38;;;;;;;;;8.33;5.33;;;;;22.53;67.54;100394.66;6130373;23;45202;-68
2023/06/20 05:47:05;;;;;;;;;8.67;6.33;;;;;22.48;67.06;100380.28;6126160;23;45238;-67
2023/06/20 05:49:30;;;;;;;;;9.00;7.33;;;;;22.54;67.34;100397.31;6118584;23;45413;-67
2023/06/20 05:51:57;;;;;;;;;9.00;4.67;;;;;22.58;67.47;100401.72;6120647;23;45445;-67
2023/06/20 05:54:26;;;;;;;;;7.33;6.33;;;;;22.68;67.06;100401.47;6117995;23;46177;-67
2023/06/20 05:56:52;;;;;;;;;9.00;7.33;;;;;22.66;66.88;100397.91;6121347;23;45382;-68
2023/06/20 05:59:17;;;;;;;;;13.00;8.33;;;;;22.67;66.74;100402.41;6130052;23;44891;-68
2023/06/20 06:01:44;;;;;;;;;8.67;7.67;;;;;22.69;66.98;100403.28;6123258;23;45559;-65
2023/06/20 06:04:10;;;;;;;;;9.33;7.00;;;;;22.69;66.69;100395.09;6119831;23;46893;-69
2023/06/20 06:06:36;;;;;;;;;13.00;8.33;;;;;22.72;66.27;100390.44;6119023;23;45573;-68
2023/06/20 06:09:01;;;;;;;;;8.00;8.00;;;;;22.89;66.25;100413.56;6120961;23;45460;-68
2023/06/20 06:11:27;;;;;;;;;9.67;6.33;;;;;22.89;66.06;100395.38;6118706;23;45358;-68
2023/06/20 06:13:52;;;;;;;;;9.33;8.33;;;;;22.86;65.25;100383.69;6120222;23;45959;-67
2023/06/20 06:16:18;;;;;;;;;13.00;9.67;;;;;23.01;65.44;100402.28;6118719;23;45612;-69
2023/06/20 06:18:43;;;;;;;;;14.33;9.00;;;;;23.04;65.04;100404.03;6119139;23;45286;-67
2023/06/20 06:21:09;;;;;;;;;10.67;8.00;;;;;23.06;65.38;100405.75;6120037;23;45580;-68
2023/06/20 06:23:35;;;;;;;;;9.33;5.00;;;;;23.10;65.09;100402.06;6119677;23;46266;-68
2023/06/20 06:26:00;;;;;;;;;11.33;8.00;;;;;23.16;64.94;100403.69;6122742;23;45266;-66
2023/06/20 06:28:27;;;;;;;;;7.00;7.00;;;;;23.18;64.73;100401.78;6120627;23;45205;-67
2023/06/20 06:31:07;;;;;;;;;9.33;9.00;;;;;23.13;64.70;100388.34;6120058;23;45419;-67
2023/06/20 06:33:33;;;;;;;;;10.00;7.67;;;;;23.30;64.48;100406.00;6117582;23;47836;-67
2023/06/20 06:35:59;;;;;;;;;6.67;6.67;;;;;23.40;64.28;100421.09;6119452;23;45344;-68
2023/06/20 06:38:25;;;;;;;;;10.00;9.00;;;;;23.50;64.15;100424.44;6120888;23;45455;-67
2023/06/20 06:40:54;;;;;;;;;11.00;11.00;;;;;23.33;63.14;100390.41;6121252;23;45369;-67
2023/06/20 06:43:23;;;;;;;;;11.00;7.33;;;;;23.57;63.22;100425.13;6119586;23;46116;-67
2023/06/20 06:45:48;;;;;;;;;11.33;8.00;;;;;23.70;63.10;100423.75;6119539;23;45292;-67
2023/06/20 06:48:14;;;;;;;;;9.33;9.33;;;;;23.72;62.85;100428.22;6119863;23;45312;-67
2023/06/20 06:50:39;;;;;;;;;10.67;8.00;;;;;23.80;62.77;100424.34;6119616;23;45409;-66
2023/06/20 06:53:04;;;;;;;;;11.67;9.00;;;;;23.86;62.53;100416.00;6119385;23;45356;-67
2023/06/20 06:55:30;;;;;;;;;10.00;9.33;;;;;23.95;62.23;100417.53;6119873;23;45297;-67
2023/06/20 06:57:55;;;;;;;;;9.67;9.67;;;;;24.01;61.45;100414.59;6119239;23;45739;-66
2023/06/20 07:00:21;;;;;;;;;9.67;9.33;;;;;24.06;61.75;100410.75;6119743;23;45511;-67
2023/06/20 07:02:46;;;;;;;;;18.33;10.33;;;;;24.15;61.39;100406.78;6118759;23;45657;-66
2023/06/20 07:05:12;;;;;;;;;12.67;12.00;;;;;24.20;60.98;100398.44;6118106;23;45281;-67
2023/06/20 07:07:37;;;;;;;;;11.00;9.67;;;;;24.23;60.93;100382.84;6119031;23;45297;-67
2023/06/20 07:10:04;;;;;;;;;13.67;11.33;;;;;24.36;60.59;100396.94;6119574;23;45390;-65
2023/06/20 07:12:29;;;;;;;;;15.67;10.67;;;;;24.43;60.71;100397.59;6120001;23;45626;-66
2023/06/20 07:14:57;;;;;;;;;12.33;10.00;;;;;24.41;60.23;100399.50;6119855;23;45682;-69
2023/06/20 07:17:23;;;;;;;;;10.33;9.33;;;;;24.43;60.02;100408.53;6121061;23;45450;-67
2023/06/20 07:19:49;;;;;;;;;11.00;9.67;;;;;24.43;59.40;100414.00;6120065;23;45532;-67
2023/06/20 07:22:15;;;;;;;;;11.33;11.33;;;;;24.39;60.04;100413.22;6117578;23;47934;-66
2023/06/20 07:24:41;;;;;;;;;12.00;10.00;;;;;24.43;59.86;100430.38;6117780;23;45615;-66
2023/06/20 07:27:06;;;;;;;;;11.00;10.00;;;;;24.46;59.50;100430.25;6116999;23;45359;-66
2023/06/20 07:29:32;;;;;;;;;15.00;11.67;;;;;24.45;59.33;100423.91;6120652;23;45451;-67
2023/06/20 07:31:57;;;;;;;;;12.00;11.67;;;;;24.38;59.25;100414.16;6119652;23;46619;-67
2023/06/20 07:34:22;;;;;;;;;13.67;9.00;;;;;24.49;60.01;100429.28;6119851;23;45280;-67
2023/06/20 07:36:48;;;;;;;;;15.00;9.67;;;;;24.52;59.23;100437.31;6121247;23;45473;-66
2023/06/20 07:39:13;;;;;;;;;11.00;9.67;;;;;24.55;59.06;100457.28;6120866;23;45153;-66
2023/06/20 07:41:39;;;;;;;;;13.67;11.00;;;;;24.52;58.85;100453.72;6117469;23;47935;-66
2023/06/20 07:44:04;;;;;;;;;12.00;12.00;;;;;24.51;59.21;100466.50;6118845;23;45419;-66
2023/06/20 07:46:30;;;;;;;;;13.33;12.00;;;;;24.53;59.73;100466.44;6120515;23;45807;-66
2023/06/20 07:48:56;;;;;;;;;11.33;10.00;;;;;24.45;59.39;100458.50;6119966;23;45268;-66
2023/06/20 07:51:21;;;;;;;;;15.00;14.00;;;;;24.48;59.27;100466.59;6118037;23;45421;-68
2023/06/20 07:53:46;;;;;;;;;14.00;10.33;;;;;24.48;59.42;100466.59;6118374;23;45224;-67
2023/06/20 07:56:12;;;;;;;;;12.33;9.00;;;;;24.48;59.44;100469.31;6118836;23;45540;-67
2023/06/20 07:58:39;;;;;;;;;11.67;10.00;;;;;24.51;59.25;100471.06;6119230;23;45375;-67
2023/06/20 08:01:06;;;;;;;;;15.67;14.00;;;;;24.21;58.74;100406.56;6119531;23;45534;-66
2023/06/20 08:03:31;;;;;;;;;17.00;12.00;;;;;24.57;59.20;100468.16;6120062;23;45350;-67
2023/06/20 08:05:57;;;;;;;;;11.00;10.33;;;;;24.60;59.06;100470.75;6120008;23;45598;-68
2023/06/20 08:08:23;;;;;;;;;13.33;10.00;;;;;24.64;58.80;100462.41;6120770;23;45324;-67
2023/06/20 08:10:48;;;;;;;;;17.00;13.67;;;;;24.64;58.57;100458.78;6118923;23;45416;-67
2023/06/20 08:13:13;;;;;;;;;11.00;10.67;;;;;24.65;58.21;100468.78;6119231;23;51818;-68
2023/06/20 08:15:39;;;;;;;;;11.67;11.67;;;;;24.67;58.37;100455.06;6117832;23;45310;-67
2023/06/20 08:18:04;;;;;;;;;15.33;13.67;;;;;24.63;58.72;100455.16;6121382;23;45322;-68
2023/06/20 08:20:30;;;;;;;;;13.00;9.67;;;;;24.74;58.75;100456.59;6121095;23;46059;-68
2023/06/20 08:22:56;;;;;;;;;16.33;10.67;;;;;24.81;58.31;100460.88;6121378;23;45346;-67
2023/06/20 08:25:21;;;;;;;;;12.00;12.00;;;;;24.84;58.17;100444.38;6120740;23;45364;-67
2023/06/20 08:27:46;;;;;;;;;9.67;8.67;;;;;24.87;57.97;100446.13;6120577;23;45345;-67
2023/06/20 08:30:12;;;;;;;;;15.00;12.67;;;;;24.91;57.81;100445.91;6120015;23;45914;-66
2023/06/20 08:32:39;;;;;;;;;9.67;9.00;;;;;24.92;57.94;100442.25;6119287;23;45341;-67
2023/06/20 08:35:06;;;;;;;;;13.00;9.33;;;;;25.01;57.64;100433.72;6119174;23;45371;-67
2023/06/20 08:37:32;;;;;;;;;15.00;12.00;;;;;25.11;57.46;100434.25;6119986;23;45305;-67
2023/06/20 08:39:57;;;;;;;;;15.33;11.00;;;;;25.22;57.16;100430.19;6119204;23;45653;-67
2023/06/20 08:42:22;;;;;;;;;14.33;14.33;;;;;25.20;57.27;100439.31;6119474;23;45225;-67
2023/06/20 08:44:50;;;;;;;;;11.00;11.00;;;;;25.28;57.25;100439.06;6120004;23;45233;-68
2023/06/20 08:47:15;;;;;;;;;13.67;10.67;;;;;25.27;56.54;100420.00;6120566;23;45384;-65
2023/06/20 08:49:41;;;;;;;;;18.33;13.33;;;;;25.30;56.75;100423.47;6119075;23;46163;-67
2023/06/20 08:52:12;;;;;;;;;14.33;13.00;;;;;25.38;56.90;100420.44;6119110;23;45402;-67
2023/06/20 08:54:40;;;;;;;;;13.00;13.00;;;;;25.45;56.92;100421.97;6117585;23;45363;-66
2023/06/20 08:57:06;;;;;;;;;14.00;13.00;;;;;25.54;56.56;100431.63;6119615;23;44745;-67
2023/06/20 08:59:33;;;;;;;;;10.33;10.33;;;;;25.60;56.42;100425.03;6118730;23;46253;-69
2023/06/20 09:01:59;;;;;;;;;14.67;11.33;;;;;25.65;56.54;100423.88;6116986;23;45222;-67
2023/06/20 09:04:27;;;;;;;;;14.67;11.00;;;;;25.66;56.33;100430.28;6119220;23;45463;-67
2023/06/20 09:06:52;;;;;;;;;14.00;11.33;;;;;25.66;56.69;100419.31;6120311;23;45257;-67
2023/06/20 09:09:17;;;;;;;;;15.33;14.00;;;;;25.73;56.70;100415.38;6117302;23;46305;-67
2023/06/20 09:11:58;;;;;;;;;16.67;13.33;;;;;25.77;56.52;100414.28;6116939;23;50300;-68
2023/06/20 09:14:27;;;;;;;;;14.00;12.67;;;;;25.82;56.49;100411.34;6119370;23;45471;-66
2023/06/20 09:16:54;;;;;;;;;13.00;11.00;;;;;25.86;56.65;100422.09;6119710;23;45236;-68
2023/06/20 09:19:19;;;;;;;;;15.00;14.00;;;;;25.86;56.03;100411.16;6116196;23;47265;-68
2023/06/20 09:21:44;;;;;;;;;14.33;13.67;;;;;26.00;56.48;100415.19;6118778;23;45269;-67
2023/06/20 09:24:10;;;;;;;;;19.33;16.33;;;;;26.00;56.25;100402.38;6116298;23;45239;-68
2023/06/20 09:26:35;;;;;;;;;14.00;14.00;;;;;26.13;55.79;100408.22;6119529;23;45316;-68
2023/06/20 09:29:09;;;;;;;;;16.33;15.67;;;;;26.19;55.92;100402.47;6117238;23;49590;-69
2023/06/20 09:31:48;;;;;;;;;14.00;12.00;;;;;26.29;55.56;100390.16;6118002;23;45280;-68
2023/06/20 09:34:15;;;;;;;;;15.33;12.00;;;;;26.38;55.28;100386.13;6119335;23;45635;-69
2023/06/20 09:36:41;;;;;;;;;16.67;14.33;;;;;26.49;54.99;100396.56;6119289;23;45246;-68
2023/06/20 09:39:20;;;;;;;;;15.67;15.67;;;;;26.56;54.36;100392.59;6118105;23;46442;-68
2023/06/20 09:41:52;;;;;;;;;13.67;12.33;;;;;26.61;54.41;100392.38;6119031;23;45213;-66
2023/06/20 09:44:19;;;;;;;;;17.33;14.00;;;;;26.61;54.05;100387.81;6118755;23;45332;-67
2023/06/20 09:46:45;;;;;;;;;18.33;14.00;;;;;26.66;53.71;100395.81;6116921;23;45277;-68
2023/06/20 09:49:15;;;;;;;;;13.67;12.67;;;;;26.65;53.56;100394.94;6118605;23;45551;-68
2023/06/20 09:51:54;;;;;;;;;13.00;12.67;;;;;26.70;53.50;100402.09;6116833;23;45278;-67
2023/06/20 09:54:48;;;;;;;;;14.33;13.33;;;;;26.58;53.18;100373.34;6118891;23;45251;-66
2023/06/20 09:57:20;;;;;;;;;10.67;10.67;;;;;26.68;53.85;100402.16;6118582;23;45347;-67
2023/06/20 09:59:49;;;;;;;;;15.00;14.00;;;;;26.69;53.41;100394.81;6117174;23;47309;-66
2023/06/20 10:02:17;;;;;;;;;13.67;9.67;;;;;26.79;53.10;100405.25;6119133;23;45225;-67
2023/06/20 10:04:43;;;;;;;;;15.00;13.33;;;;;26.75;53.01;100405.50;6118922;23;45329;-67
2023/06/20 10:07:14;;;;;;;;;13.67;11.67;;;;;26.76;51.47;100404.50;6119184;23;45300;-66
2023/06/20 10:09:44;;;;;;;;;14.33;11.67;;;;;26.76;51.27;100407.25;6119760;23;45316;-67
2023/06/20 10:12:11;;;;;;;;;22.00;21.00;;;;;26.85;51.49;100417.81;6117398;23;45228;-68
2023/06/20 10:14:38;;;;;;;;;7.33;7.33;;;;;26.95;50.32;100435.59;6118928;23;45321;-70
2023/06/20 10:17:07;;;;;;;;;14.33;11.67;;;;;26.92;50.45;100433.00;6119031;23;45441;-65
2023/06/20 10:19:53;;;;;;;;;9.67;9.00;;;;;26.97;50.90;100432.78;6118214;23;45588;-68
2023/06/20 10:22:34;;;;;;;;;9.33;9.33;;;;;27.00;50.89;100425.31;6117986;23;45328;-67
2023/06/20 10:25:11;;;;;;;;;24.00;24.00;;;;;27.12;50.38;100442.13;6119299;23;45392;-68
2023/06/20 10:27:39;;;;;;;;;11.33;11.33;;;;;27.19;49.88;100436.28;6118145;23;45313;-67
2023/06/20 10:30:06;;;;;;;;;12.67;9.67;;;;;27.21;49.44;100428.88;6118047;23;46216;-68
2023/06/20 10:32:31;;;;;;;;;12.33;11.33;;;;;27.41;48.84;100454.50;6118281;23;45220;-67
2023/06/20 10:35:04;;;;;;;;;7.67;7.67;;;;;27.52;46.82;100454.88;6119702;23;45748;-67
2023/06/20 10:37:29;;;;;;;;;16.00;11.00;;;;;27.56;47.34;100461.09;6120483;23;45395;-67
2023/06/20 10:39:58;;;;;;;;;9.33;8.33;;;;;27.55;47.10;100457.47;6119543;23;45947;-68
2023/06/20 10:42:41;;;;;;;;;10.00;8.33;;;;;27.61;47.31;100450.78;6119738;23;45385;-68
2023/06/20 10:45:29;;;;;;;;;7.33;5.00;;;;;27.68;46.91;100449.50;6119578;23;45322;-67
2023/06/20 10:47:56;;;;;;;;;8.00;8.00;;;;;27.71;46.99;100454.84;6119438;23;45501;-69
2023/06/20 10:50:23;;;;;;;;;10.00;7.67;;;;;27.68;46.55;100448.59;6119354;23;46281;-68
2023/06/20 10:52:49;;;;;;;;;14.00;10.00;;;;;27.73;46.58;100452.00;6119638;23;45446;-68
2023/06/20 10:55:21;;;;;;;;;7.67;7.67;;;;;27.77;46.70;100461.88;6119481;23;45392;-67
2023/06/20 10:57:47;;;;;;;;;10.00;7.00;;;;;27.75;46.29;100458.31;6119373;23;45328;-68
2023/06/20 11:00:18;;;;;;;;;8.33;7.33;;;;;27.75;45.92;100456.47;6119398;23;45370;-68
2023/06/20 11:02:47;;;;;;;;;12.00;10.67;;;;;27.86;45.90;100460.53;6118819;23;45415;-67
2023/06/20 11:05:13;;;;;;;;;12.33;10.00;;;;;27.92;45.60;100452.00;6119959;23;45486;-68
2023/06/20 11:08:01;;;;;;;;;9.00;7.00;;;;;28.01;45.24;100453.41;6119078;23;45503;-69
2023/06/20 11:10:37;;;;;;;;;5.67;5.67;;;;;28.03;45.66;100463.34;6117773;23;48517;-67
2023/06/20 11:13:04;;;;;;;;;10.00;8.67;;;;;28.08;45.65;100455.78;6119525;23;45200;-67
2023/06/20 11:15:32;;;;;;;;;10.67;8.00;;;;;28.11;45.60;100461.09;6116854;23;45657;-68
2023/06/20 11:18:01;;;;;;;;;10.33;7.00;;;;;28.16;45.62;100455.34;6119945;23;45449;-70
2023/06/20 11:20:27;;;;;;;;;9.33;9.00;;;;;27.97;45.88;100411.50;6119287;23;46187;-67
2023/06/20 11:22:57;;;;;;;;;10.00;9.00;;;;;28.23;45.67;100458.66;6119303;23;45445;-68
2023/06/20 11:25:28;;;;;;;;;7.33;7.33;;;;;28.19;46.39;100457.06;6119793;23;45332;-69